Time;durP1;ratioP1;P1;durP2;ratioP2;P2;SDS_P1;SDS_P2;PMS_P1;PMS_P2;Temp;Humidity;BMP_temperature;BMP_pressure;BME280_temperature;BME280_humidity;BME280_pressure;Samples;Min_cycle;Max_cycle;Signal;HPM_P1;HPM_P2
2022/12/10 00:00:33;;;;;;;111.93;29.52;;;;;;;-0.74;100.00;100704.13;5059695;28;20021;-74
2022/12/10 00:02:58;;;;;;;109.38;31.95;;;;;;;-0.71;100.00;100709.47;5035564;28;20029;-73
2022/12/10 00:05:23;;;;;;;120.05;28.90;;;;;;;-0.71;100.00;100719.81;5075049;28;20025;-73
2022/12/10 00:07:49;;;;;;;121.32;30.55;;;;;;;-0.73;100.00;100712.81;5048131;28;20366;-74
2022/12/10 00:10:14;;;;;;;102.70;30.02;;;;;;;-0.73;100.00;100703.34;5048990;28;20037;-73
2022/12/10 00:12:39;;;;;;;99.28;27.00;;;;;;;-0.78;100.00;100709.94;5054849;28;20086;-73
2022/12/10 00:15:05;;;;;;;104.88;29.27;;;;;;;-0.79;100.00;100715.00;5048255;28;20033;-74
2022/12/10 00:17:31;;;;;;;121.38;30.15;;;;;;;-0.78;100.00;100709.94;5038602;28;20021;-74
2022/12/10 00:19:56;;;;;;;106.85;32.10;;;;;;;-0.82;100.00;100710.53;5042892;28;20036;-72
2022/12/10 00:22:21;;;;;;;122.07;29.73;;;;;;;-0.83;100.00;100708.75;5045954;28;20032;-73
2022/12/10 00:24:46;;;;;;;104.68;28.92;;;;;;;-0.86;100.00;100706.00;5061839;28;20032;-73
2022/12/10 00:27:12;;;;;;;118.70;32.10;;;;;;;-0.85;100.00;100702.63;5044443;28;20476;-73
2022/12/10 00:29:37;;;;;;;109.03;30.00;;;;;;;-0.79;100.00;100707.25;5043527;28;20043;-73
2022/12/10 00:32:05;;;;;;;107.65;30.27;;;;;;;-0.86;100.00;100709.44;5052529;28;20021;-73
2022/12/10 00:34:30;;;;;;;102.68;28.20;;;;;;;-0.84;100.00;100714.75;5062752;28;20477;-73
2022/12/10 00:36:56;;;;;;;116.43;30.52;;;;;;;-0.89;100.00;100713.56;5062850;28;20017;-72
2022/12/10 00:39:21;;;;;;;122.03;31.15;;;;;;;-0.90;100.00;100715.22;5044012;28;20071;-73
2022/12/10 00:41:47;;;;;;;102.20;29.67;;;;;;;-0.91;100.00;100718.63;5046360;28;20027;-73
2022/12/10 00:44:14;;;;;;;110.88;30.77;;;;;;;-0.88;100.00;100713.66;5048725;28;20029;-73
2022/12/10 00:46:39;;;;;;;115.28;32.08;;;;;;;-0.97;100.00;100709.63;5058268;28;20476;-73
2022/12/10 00:49:05;;;;;;;112.85;30.75;;;;;;;-1.04;100.00;100711.81;5049035;28;20032;-72
2022/12/10 00:51:31;;;;;;;115.07;31.90;;;;;;;-1.00;100.00;100718.06;5049426;28;20028;-73
2022/12/10 00:53:58;;;;;;;117.20;31.88;;;;;;;-1.01;100.00;100731.78;5043866;28;20412;-72
2022/12/10 00:56:30;;;;;;;96.72;29.17;;;;;;;-1.02;100.00;100728.31;5049609;28;20025;-74
2022/12/10 00:58:56;;;;;;;106.72;30.63;;;;;;;-1.05;100.00;100728.09;5047375;28;20041;-73
2022/12/10 01:01:29;;;;;;;103.82;29.38;;;;;;;-1.05;100.00;100722.06;5064431;28;20032;-73
2022/12/10 01:03:58;;;;;;;103.60;30.52;;;;;;;-1.04;100.00;100722.16;5054075;28;20064;-72
2022/12/10 01:06:30;;;;;;;116.72;33.35;;;;;;;-1.03;100.00;100723.94;5048094;28;20128;-72
2022/12/10 01:08:58;;;;;;;98.93;28.92;;;;;;;-1.03;100.00;100725.66;5053931;28;20032;-73
2022/12/10 01:11:36;;;;;;;115.03;30.60;;;;;;;-1.10;100.00;100733.78;5065056;28;20469;-72
2022/12/10 01:14:02;;;;;;;109.57;31.15;;;;;;;-1.12;100.00;100736.28;5037150;28;20021;-73
2022/12/10 01:16:28;;;;;;;105.75;28.90;;;;;;;-1.08;100.00;100742.53;5051408;28;20032;-73
2022/12/10 01:18:55;;;;;;;110.95;30.35;;;;;;;-1.10;100.00;100739.88;5055343;28;20013;-72
2022/12/10 01:21:21;;;;;;;104.43;30.65;;;;;;;-1.08;100.00;100739.97;5064643;28;20036;-73
2022/12/10 01:23:48;;;;;;;104.95;29.92;;;;;;;-1.06;100.00;100741.84;5044879;28;20039;-72
2022/12/10 01:26:20;;;;;;;113.40;30.00;;;;;;;-1.01;100.00;100752.44;5046409;28;20494;-72
2022/12/10 01:28:45;;;;;;;100.80;28.98;;;;;;;-0.99;100.00;100748.28;5073736;28;20115;-72
2022/12/10 01:31:18;;;;;;;108.15;31.55;;;;;;;-0.92;100.00;100758.19;5048866;28;20486;-73
2022/12/10 01:33:44;;;;;;;100.30;31.83;;;;;;;-0.90;100.00;100753.97;5040848;28;20029;-73
2022/12/10 01:36:16;;;;;;;115.88;32.28;;;;;;;-0.93;100.00;100750.34;5050166;28;20641;-72
2022/12/10 01:38:41;;;;;;;97.15;27.77;;;;;;;-0.91;100.00;100761.63;5049185;28;20025;-73
2022/12/10 01:41:12;;;;;;;99.10;30.23;;;;;;;-0.84;100.00;100756.06;5051413;28;20032;-73
2022/12/10 01:43:59;;;;;;;103.10;31.00;;;;;;;-0.89;100.00;100760.94;5056166;28;20044;-74
2022/12/10 01:46:33;;;;;;;105.63;32.80;;;;;;;-0.89;100.00;100757.47;5060191;28;20060;-73
2022/12/10 01:49:01;;;;;;;107.75;31.63;;;;;;;-0.88;100.00;100760.16;5059095;28;20031;-73
2022/12/10 01:51:29;;;;;;;124.22;35.47;;;;;;;-0.81;100.00;100760.50;5058313;28;20033;-72
2022/12/10 01:53:55;;;;;;;117.80;32.95;;;;;;;-0.85;100.00;100764.63;5057388;28;20035;-73
2022/12/10 01:56:22;;;;;;;112.03;32.92;;;;;;;-0.90;100.00;100766.00;5049133;28;20400;-71
2022/12/10 01:58:54;;;;;;;132.27;34.88;;;;;;;-0.88;100.00;100764.44;5046166;28;20041;-73
2022/12/10 02:01:37;;;;;;;122.18;35.65;;;;;;;-0.91;100.00;100769.38;5038249;28;20116;-73
2022/12/10 02:04:06;;;;;;;136.75;33.78;;;;;;;-0.89;100.00;100767.81;5050650;28;20068;-73
2022/12/10 02:06:46;;;;;;;137.73;37.25;;;;;;;-0.85;100.00;100762.91;5059159;28;20078;-74
2022/12/10 02:09:22;;;;;;;118.53;34.55;;;;;;;-0.85;100.00;100767.19;5041381;28;20024;-73
2022/12/10 02:12:06;;;;;;;130.88;36.45;;;;;;;-0.81;100.00;100776.00;5048253;28;20225;-73
2022/12/10 02:14:47;;;;;;;123.10;34.15;;;;;;;-0.77;100.00;100768.56;5041991;28;20446;-75
2022/12/10 02:17:41;;;;;;;117.07;33.95;;;;;;;-0.80;100.00;100765.78;5045219;28;20029;-74
2022/12/10 02:20:10;;;;;;;111.55;34.05;;;;;;;-0.84;100.00;100763.81;5051282;28;20078;-71
2022/12/10 02:22:41;;;;;;;144.02;36.25;;;;;;;-0.80;100.00;100759.72;5041396;28;20386;-72
2022/12/10 02:25:11;;;;;;;182.55;34.25;;;;;;;-0.84;100.00;100750.91;5040720;28;20029;-73
2022/12/10 02:27:48;;;;;;;164.57;33.53;;;;;;;-0.85;100.00;100767.19;5050897;28;20461;-73
2022/12/10 02:30:14;;;;;;;123.00;34.05;;;;;;;-0.87;100.00;100761.94;5036549;28;20035;-72
2022/12/10 02:32:43;;;;;;;143.38;35.65;;;;;;;-0.85;100.00;100768.06;5051444;28;20027;-73
2022/12/10 02:35:15;;;;;;;158.95;35.53;;;;;;;-0.92;100.00;100762.47;5040239;28;20084;-72
2022/12/10 02:37:56;;;;;;;161.07;36.58;;;;;;;-0.88;100.00;100767.03;5048892;28;20083;-74
2022/12/10 02:40:29;;;;;;;176.23;32.53;;;;;;;-0.88;100.00;100764.44;5056786;28;20032;-73
2022/12/10 02:42:55;;;;;;;180.30;35.55;;;;;;;-0.82;100.00;100759.63;5041332;28;20167;-73
2022/12/10 02:45:25;;;;;;;227.25;34.85;;;;;;;-0.90;100.00;100761.72;5054534;28;20119;-74
2022/12/10 02:47:53;;;;;;;192.68;34.78;;;;;;;-0.85;100.00;100754.28;5045821;28;20091;-73
2022/12/10 02:50:20;;;;;;;191.20;34.95;;;;;;;-0.87;100.00;100756.78;5048043;28;20389;-73
2022/12/10 02:52:46;;;;;;;257.08;36.53;;;;;;;-0.89;100.00;100744.56;5051096;28;20457;-73
2022/12/10 02:55:13;;;;;;;156.50;34.85;;;;;;;-0.89;100.00;100744.56;5048182;28;20020;-73
2022/12/10 02:58:07;;;;;;;166.50;33.85;;;;;;;-0.94;100.00;100743.38;5056074;28;20051;-73
2022/12/10 03:00:43;;;;;;;123.82;34.35;;;;;;;-0.83;100.00;100747.50;5046231;28;20392;-73
2022/12/10 03:03:23;;;;;;;274.98;34.72;;;;;;;-0.81;100.00;100751.09;5055217;28;20036;-73
2022/12/10 03:06:11;;;;;;;164.18;32.42;;;;;;;-0.86;100.00;100743.03;5055899;28;20039;-73
2022/12/10 03:08:49;;;;;;;164.85;35.10;;;;;;;-0.86;100.00;100748.19;5051046;28;20033;-73
2022/12/10 03:11:21;;;;;;;144.35;32.60;;;;;;;-0.90;100.00;100746.22;5053245;28;20033;-73
2022/12/10 03:13:53;;;;;;;152.95;31.75;;;;;;;-0.83;100.00;100756.94;5050034;28;20024;-71
2022/12/10 03:16:20;;;;;;;124.88;31.77;;;;;;;-0.86;100.00;100745.63;5041601;28;20387;-72
2022/12/10 03:18:49;;;;;;;153.00;33.35;;;;;;;-0.84;100.00;100745.75;5058240;28;20425;-73
2022/12/10 03:21:15;;;;;;;145.27;32.33;;;;;;;-0.77;100.00;100742.72;5082684;28;20126;-73
2022/12/10 03:23:45;;;;;;;188.25;34.83;;;;;;;-0.79;100.00;100746.88;5050603;28;20082;-73
2022/12/10 03:26:11;;;;;;;199.52;34.72;;;;;;;-0.73;100.00;100749.84;5055924;28;20033;-73
2022/12/10 03:28:48;;;;;;;194.55;37.17;;;;;;;-0.69;100.00;100750.94;5048324;28;20025;-73
2022/12/10 03:31:15;;;;;;;213.52;35.47;;;;;;;-0.78;100.00;100756.44;5047208;28;20037;-73
2022/12/10 03:33:41;;;;;;;165.50;32.33;;;;;;;-0.78;100.00;100753.84;5054810;28;20032;-72
2022/12/10 03:36:08;;;;;;;194.50;35.83;;;;;;;-0.76;100.00;100754.84;5046645;28;20480;-72
2022/12/10 03:38:34;;;;;;;163.57;32.28;;;;;;;-0.74;100.00;100757.53;5044221;28;20477;-74
2022/12/10 03:40:59;;;;;;;214.35;30.70;;;;;;;-0.73;100.00;100760.19;5052432;28;20465;-72
2022/12/10 03:43:25;;;;;;;295.98;32.55;;;;;;;-0.78;100.00;100761.59;5058263;28;20089;-73
2022/12/10 03:45:50;;;;;;;233.52;32.25;;;;;;;-0.73;100.00;100760.19;5052453;28;20124;-74
2022/12/10 03:48:16;;;;;;;183.00;29.55;;;;;;;-0.77;100.00;100765.97;5041771;28;20041;-72
2022/12/10 03:50:41;;;;;;;162.20;28.13;;;;;;;-0.75;100.00;100772.09;5052485;28;20441;-73
2022/12/10 03:53:06;;;;;;;119.00;28.40;;;;;;;-0.76;100.00;100767.75;5038130;28;20057;-73
2022/12/10 03:55:32;;;;;;;181.73;29.42;;;;;;;-0.73;100.00;100757.59;5068077;28;20535;-72
2022/12/10 03:57:58;;;;;;;217.10;31.15;;;;;;;-0.81;100.00;100765.66;5062204;28;20017;-73
2022/12/10 04:00:23;;;;;;;162.25;27.98;;;;;;;-0.83;100.00;100764.69;5049415;28;20129;-72
2022/12/10 04:02:48;;;;;;;145.82;28.63;;;;;;;-0.83;100.00;100762.13;5047494;28;20051;-72
2022/12/10 04:05:14;;;;;;;162.48;27.90;;;;;;;-0.85;100.00;100769.78;5040533;28;20035;-73
2022/12/10 04:07:39;;;;;;;157.75;27.02;;;;;;;-0.84;100.00;100766.41;5058191;28;20380;-74
2022/12/10 04:10:05;;;;;;;247.52;31.95;;;;;;;-0.76;100.00;100765.19;5052463;28;20472;-72
2022/12/10 04:12:30;;;;;;;146.00;29.70;;;;;;;-0.71;100.00;100760.28;5050140;28;20067;-71
2022/12/10 04:17:40;;;;;;;158.48;28.40;;;;;;;-0.73;100.00;100761.88;5050378;28;20097;-73
2022/12/10 04:26:51;;;;;;;161.75;29.75;;;;;;;-0.71;100.00;100768.03;5050125;28;20461;-74
2022/12/10 04:28:20;;;;;;;164.00;30.10;;;;;;;-0.74;100.00;100766.16;5043753;28;20048;-73
2022/12/10 04:30:45;;;;;;;196.65;31.05;;;;;;;-0.75;100.00;100760.88;5059887;28;20481;-73
2022/12/10 04:33:10;;;;;;;187.30;30.55;;;;;;;-0.76;100.00;100757.44;5053143;28;20033;-73
2022/12/10 04:35:36;;;;;;;187.63;30.58;;;;;;;-0.68;100.00;100756.19;5047931;28;20027;-73
2022/12/10 04:38:01;;;;;;;186.50;29.50;;;;;;;-0.74;100.00;100758.41;5048267;28;20112;-73
2022/12/10 04:40:26;;;;;;;166.32;30.00;;;;;;;-0.85;100.00;100769.78;5050603;28;20033;-73
2022/12/10 04:42:52;;;;;;;151.57;29.70;;;;;;;-0.77;100.00;100770.25;5048919;28;20025;-73
2022/12/10 04:45:17;;;;;;;129.23;29.30;;;;;;;-0.73;100.00;100773.09;5051305;28;20377;-74
2022/12/10 04:47:42;;;;;;;113.65;28.00;;;;;;;-0.72;100.00;100779.16;5041646;28;20017;-72
2022/12/10 04:50:08;;;;;;;158.07;27.30;;;;;;;-0.72;100.00;100781.75;5044396;28;20427;-72
2022/12/10 04:52:33;;;;;;;147.48;28.08;;;;;;;-0.76;100.00;100775.50;5053553;28;20107;-73
2022/12/10 04:54:58;;;;;;;156.23;27.27;;;;;;;-0.75;100.00;100768.63;5046369;28;20025;-74
2022/12/10 04:57:24;;;;;;;155.70;25.48;;;;;;;-0.76;100.00;100772.00;5051143;28;20063;-74
2022/12/10 04:59:49;;;;;;;102.82;27.60;;;;;;;-0.74;100.00;100773.03;5059604;28;20040;-72
2022/12/10 05:02:15;;;;;;;151.25;28.98;;;;;;;-0.73;100.00;100764.47;5046819;28;20037;-73
2022/12/10 05:04:40;;;;;;;204.93;31.40;;;;;;;-0.69;100.00;100766.44;5059348;28;20029;-72
2022/12/10 05:07:05;;;;;;;155.10;30.92;;;;;;;-0.66;100.00;100770.88;5067606;28;20435;-73
2022/12/10 05:09:31;;;;;;;132.50;29.10;;;;;;;-0.63;100.00;100764.22;5067825;28;20040;-72
2022/12/10 05:11:56;;;;;;;134.52;28.05;;;;;;;-0.62;100.00;100763.41;5041670;28;20424;-73
2022/12/10 05:14:22;;;;;;;205.88;30.75;;;;;;;-0.63;100.00;100766.78;5053646;28;20028;-72
2022/12/10 05:16:49;;;;;;;183.73;31.25;;;;;;;-0.61;100.00;100764.31;5043490;28;20036;-73
2022/12/10 05:19:15;;;;;;;253.38;31.73;;;;;;;-0.66;100.00;100766.63;5061620;28;20060;-73
2022/12/10 05:24:24;;;;;;;250.82;32.13;;;;;;;-0.63;100.00;100760.75;5050533;28;20047;-74
2022/12/10 05:26:51;;;;;;;149.27;27.33;;;;;;;-0.65;100.00;100765.84;5051034;28;20031;-73
2022/12/10 05:29:16;;;;;;;104.95;23.25;;;;;;;-0.66;100.00;100760.53;5053423;28;20025;-73
2022/12/10 05:31:42;;;;;;;172.27;26.48;;;;;;;-0.62;100.00;100754.78;5050895;28;20495;-73
2022/12/10 05:34:10;;;;;;;149.10;24.63;;;;;;;-0.62;100.00;100758.25;5037460;28;20021;-73
2022/12/10 05:36:35;;;;;;;120.78;26.55;;;;;;;-0.62;100.00;100754.78;5045659;28;20021;-72
2022/12/10 05:39:01;;;;;;;118.63;26.65;;;;;;;-0.60;100.00;100754.06;5057255;28;20039;-73
2022/12/10 05:41:29;;;;;;;174.90;27.20;;;;;;;-0.63;100.00;100747.84;5043996;28;20029;-74
2022/12/10 05:43:57;;;;;;;122.05;26.08;;;;;;;-0.66;100.00;100751.13;5046507;28;20489;-73
2022/12/10 05:46:26;;;;;;;173.20;26.30;;;;;;;-0.68;100.00;100763.94;5046350;28;20111;-72
2022/12/10 05:48:52;;;;;;;186.02;26.67;;;;;;;-0.70;100.00;100764.66;5048725;28;20028;-73
2022/12/10 05:51:24;;;;;;;134.23;25.60;;;;;;;-0.70;100.00;100756.91;5054352;28;20067;-72
2022/12/10 05:53:50;;;;;;;96.20;23.35;;;;;;;-0.70;100.00;100764.66;5037912;28;20056;-72
2022/12/10 05:56:18;;;;;;;110.32;26.50;;;;;;;-0.71;100.00;100765.44;5052265;28;20272;-73
2022/12/10 05:58:45;;;;;;;144.90;26.65;;;;;;;-0.70;100.00;100768.13;5058806;28;20053;-73
2022/12/10 06:01:33;;;;;;;142.18;26.80;;;;;;;-0.66;100.00;100760.53;5049232;28;20029;-72
2022/12/10 06:04:00;;;;;;;112.85;26.52;;;;;;;-0.65;100.00;100764.91;5042428;28;20477;-73
2022/12/10 06:06:29;;;;;;;279.15;32.72;;;;;;;-0.65;100.00;100771.00;5054305;28;20033;-73
2022/12/10 06:08:55;;;;;;;139.63;26.85;;;;;;;-0.63;100.00;100766.78;5046283;28;20025;-73
2022/12/10 06:11:21;;;;;;;104.40;27.45;;;;;;;-0.62;100.00;100765.13;5058097;28;20031;-74
2022/12/10 06:13:47;;;;;;;181.95;28.20;;;;;;;-0.61;100.00;100772.97;5055252;28;20397;-73
2022/12/10 06:16:13;;;;;;;160.27;29.67;;;;;;;-0.60;100.00;100779.00;5056198;28;20560;-73
2022/12/10 06:18:39;;;;;;;137.05;27.50;;;;;;;-0.56;100.00;100778.41;5055165;28;20057;-73
2022/12/10 06:21:06;;;;;;;173.57;28.40;;;;;;;-0.62;100.00;100775.47;5044481;28;20071;-72
2022/12/10 06:23:34;;;;;;;143.10;27.00;;;;;;;-0.58;100.00;100778.31;5047682;28;20115;-72
2022/12/10 06:26:03;;;;;;;118.82;25.50;;;;;;;-0.55;100.00;100775.03;5048349;28;20098;-72
2022/12/10 06:28:28;;;;;;;155.45;27.63;;;;;;;-0.55;100.00;100777.59;5046758;28;20786;-73
2022/12/10 06:30:54;;;;;;;171.30;28.20;;;;;;;-0.58;100.00;100777.44;5047550;28;20029;-73
2022/12/10 06:33:19;;;;;;;199.90;27.80;;;;;;;-0.54;100.00;100781.97;5049196;28;20112;-73
2022/12/10 06:35:44;;;;;;;199.45;26.17;;;;;;;-0.57;100.00;100781.78;5047080;28;20048;-73
2022/12/10 06:38:10;;;;;;;187.52;26.88;;;;;;;-0.61;100.00;100784.97;5049647;28;20059;-72
2022/12/10 06:40:39;;;;;;;133.57;25.52;;;;;;;-0.65;100.00;100783.00;5055694;28;20025;-73
2022/12/10 06:43:04;;;;;;;221.45;26.85;;;;;;;-0.61;100.00;100785.88;5050424;28;20060;-73
2022/12/10 06:45:29;;;;;;;185.90;24.27;;;;;;;-0.61;100.00;100800.47;5048308;28;20068;-72
2022/12/10 06:47:55;;;;;;;118.35;22.80;;;;;;;-0.61;100.00;100784.97;5051794;28;20020;-73
2022/12/10 06:50:20;;;;;;;114.93;23.60;;;;;;;-0.69;100.00;100792.28;5060503;28;20444;-72
2022/12/10 06:52:45;;;;;;;132.98;20.98;;;;;;;-0.79;100.00;100806.31;5051102;28;20594;-71
2022/12/10 06:55:11;;;;;;;95.50;23.60;;;;;;;-0.72;100.00;100813.66;5045466;28;20052;-72
2022/12/10 06:57:36;;;;;;;91.50;21.65;;;;;;;-0.72;100.00;100816.25;5045704;28;20061;-73
2022/12/10 07:00:02;;;;;;;137.65;23.90;;;;;;;-0.68;100.00;100820.78;5037372;28;20080;-72
2022/12/10 07:02:28;;;;;;;120.20;21.63;;;;;;;-0.73;100.00;100817.03;5049613;28;20032;-74
2022/12/10 07:04:56;;;;;;;102.07;22.60;;;;;;;-0.80;100.00;100819.13;5054768;28;20136;-73
2022/12/10 07:07:21;;;;;;;110.85;22.17;;;;;;;-0.78;100.00;100826.19;5053687;28;20033;-72
2022/12/10 07:09:47;;;;;;;93.60;23.38;;;;;;;-0.73;100.00;100818.75;5049195;28;20440;-72
2022/12/10 07:12:12;;;;;;;84.10;21.75;;;;;;;-0.72;100.00;100816.25;5049590;28;20074;-73
2022/12/10 07:14:38;;;;;;;126.72;23.08;;;;;;;-0.71;100.00;100820.59;5052871;28;20404;-72
2022/12/10 07:17:05;;;;;;;143.02;23.70;;;;;;;-0.75;100.00;100823.78;5048229;28;20037;-73
2022/12/10 07:19:30;;;;;;;89.57;22.35;;;;;;;-0.77;100.00;100825.41;5055615;28;20457;-72
2022/12/10 07:21:55;;;;;;;114.55;23.63;;;;;;;-0.77;100.00;100820.22;5060521;28;20096;-72
2022/12/10 07:24:21;;;;;;;111.32;23.05;;;;;;;-0.75;100.00;100821.19;5053196;28;20021;-74
2022/12/10 07:26:46;;;;;;;91.47;23.63;;;;;;;-0.70;100.00;100832.72;5048616;28;20172;-75
2022/12/10 07:29:18;;;;;;;87.05;23.48;;;;;;;-0.68;100.00;100828.56;5052933;28;20079;-75
2022/12/10 07:31:44;;;;;;;82.72;24.67;;;;;;;-0.77;100.00;100830.56;5042748;28;20040;-72
2022/12/10 07:34:10;;;;;;;104.85;22.33;;;;;;;-0.77;100.00;100822.81;5044943;28;20044;-73
2022/12/10 07:36:36;;;;;;;121.50;24.90;;;;;;;-0.78;100.00;100821.00;5051835;28;20029;-73
2022/12/10 07:39:05;;;;;;;102.57;23.42;;;;;;;-0.75;100.00;100823.78;5048822;28;20028;-73
2022/12/10 07:41:31;;;;;;;111.43;25.77;;;;;;;-0.77;100.00;100820.22;5055268;28;20037;-74
2022/12/10 07:43:56;;;;;;;100.97;24.92;;;;;;;-0.71;100.00;100819.69;5051330;28;20029;-75
2022/12/10 07:46:27;;;;;;;156.85;27.13;;;;;;;-0.70;100.00;100821.50;5047237;28;20064;-74
2022/12/10 07:48:53;;;;;;;117.13;25.17;;;;;;;-0.69;100.00;100829.34;5047087;28;20532;-73
2022/12/10 07:51:20;;;;;;;112.20;26.55;;;;;;;-0.71;100.00;100823.16;5051942;28;20075;-74
2022/12/10 07:53:46;;;;;;;99.30;24.85;;;;;;;-0.70;100.00;100832.72;5051423;28;20033;-73
2022/12/10 07:56:12;;;;;;;111.68;26.58;;;;;;;-0.63;100.00;100843.44;5049525;28;20028;-73
2022/12/10 07:58:41;;;;;;;130.77;24.80;;;;;;;-0.72;100.00;100843.75;5051881;28;20512;-73
2022/12/10 08:01:13;;;;;;;126.68;24.08;;;;;;;-0.76;100.00;100836.59;5054630;28;20086;-74
2022/12/10 08:03:39;;;;;;;116.38;25.65;;;;;;;-0.73;100.00;100837.69;5052474;28;20550;-73
2022/12/10 08:06:10;;;;;;;128.20;26.45;;;;;;;-0.70;100.00;100843.06;5045380;28;20033;-73
2022/12/10 08:08:37;;;;;;;106.68;26.15;;;;;;;-0.70;100.00;100845.63;5066573;28;20404;-72
2022/12/10 08:11:04;;;;;;;125.40;26.42;;;;;;;-0.66;100.00;100854.47;5046428;28;20090;-74
2022/12/10 08:13:30;;;;;;;97.40;22.98;;;;;;;-0.69;100.00;100857.75;5053521;28;20064;-73
2022/12/10 08:16:12;;;;;;;150.43;29.33;;;;;;;-0.64;100.00;100857.16;5050535;28;20428;-73
2022/12/10 08:18:38;;;;;;;105.75;28.40;;;;;;;-0.64;100.00;100857.16;5051490;28;20028;-72
2022/12/10 08:21:05;;;;;;;153.38;30.02;;;;;;;-0.63;100.00;100854.66;5046951;28;20044;-73
2022/12/10 08:23:30;;;;;;;108.38;28.23;;;;;;;-0.56;100.00;100861.97;5067115;28;20500;-73
2022/12/10 08:25:56;;;;;;;183.00;30.85;;;;;;;-0.53;100.00;100867.38;5047896;28;20025;-71
2022/12/10 08:28:21;;;;;;;118.32;27.50;;;;;;;-0.49;100.00;100870.13;5044866;28;20063;-71
2022/12/10 08:30:47;;;;;;;132.48;28.67;;;;;;;-0.48;100.00;100870.22;5050918;28;20021;-72
2022/12/10 08:33:13;;;;;;;115.88;29.73;;;;;;;-0.54;100.00;100875.03;5070385;28;20078;-72
2022/12/10 08:35:39;;;;;;;141.35;29.58;;;;;;;-0.55;100.00;100868.06;5062279;28;20408;-73
2022/12/10 08:38:04;;;;;;;107.60;29.38;;;;;;;-0.52;100.00;100873.41;5053275;28;20040;-72
2022/12/10 08:40:29;;;;;;;125.38;27.55;;;;;;;-0.48;100.00;100870.22;5051662;28;20037;-71
2022/12/10 08:42:55;;;;;;;119.68;26.17;;;;;;;-0.55;100.00;100873.22;5034118;28;20033;-73
2022/12/10 08:45:20;;;;;;;146.40;29.80;;;;;;;-0.46;100.00;100878.06;5053088;28;20079;-72
2022/12/10 08:47:45;;;;;;;151.23;32.65;;;;;;;-0.42;100.00;100875.78;5053475;28;20017;-72
2022/12/10 08:50:10;;;;;;;132.90;32.08;;;;;;;-0.33;100.00;100887.47;5052404;28;20037;-73
2022/12/10 08:52:36;;;;;;;124.35;30.85;;;;;;;-0.42;100.00;100886.13;5073215;28;20052;-73
2022/12/10 08:55:02;;;;;;;112.95;28.08;;;;;;;-0.47;100.00;100881.47;5069335;28;20032;-72
2022/12/10 08:57:28;;;;;;;165.05;32.17;;;;;;;-0.41;100.00;100882.72;5053195;28;20400;-73
2022/12/10 08:59:53;;;;;;;117.80;27.80;;;;;;;-0.47;100.00;100877.19;5052947;28;20037;-72
2022/12/10 09:02:19;;;;;;;117.53;29.25;;;;;;;-0.49;100.00;100883.94;5051169;28;20108;-73
2022/12/10 09:04:46;;;;;;;115.13;30.48;;;;;;;-0.45;100.00;100885.91;5052783;28;20068;-73
2022/12/10 09:07:11;;;;;;;146.80;30.55;;;;;;;-0.48;100.00;100887.44;5053436;28;20112;-72
2022/12/10 09:09:37;;;;;;;115.22;27.92;;;;;;;-0.48;100.00;100897.78;5051921;28;20112;-72
2022/12/10 09:12:02;;;;;;;108.70;27.90;;;;;;;-0.44;100.00;100902.34;5051638;28;20040;-73
2022/12/10 09:14:27;;;;;;;123.97;28.25;;;;;;;-0.58;100.00;100906.66;5040099;28;20351;-72
2022/12/10 09:16:53;;;;;;;120.75;27.63;;;;;;;-0.67;100.00;100901.78;5051029;28;20527;-73
2022/12/10 09:19:18;;;;;;;123.97;28.63;;;;;;;-0.63;100.00;100889.97;5053786;28;20032;-73
2022/12/10 09:21:43;;;;;;;116.13;29.20;;;;;;;-0.55;100.00;100899.06;5065323;28;20032;-73
2022/12/10 09:24:09;;;;;;;135.63;31.08;;;;;;;-0.49;100.00;100902.03;5055055;28;20091;-73
2022/12/10 09:26:34;;;;;;;124.45;29.90;;;;;;;-0.44;100.00;100913.56;5036705;28;20029;-73
2022/12/10 09:29:00;;;;;;;120.45;30.80;;;;;;;-0.43;100.00;100911.88;5038807;28;20500;-72
2022/12/10 09:31:26;;;;;;;134.80;31.52;;;;;;;-0.45;100.00;100911.75;5055559;28;20111;-72
2022/12/10 09:33:53;;;;;;;143.65;29.00;;;;;;;-0.44;100.00;100910.97;5053344;28;20028;-71
2022/12/10 09:36:20;;;;;;;118.53;26.35;;;;;;;-0.45;100.00;100908.28;5053320;28;20655;-70
2022/12/10 09:38:46;;;;;;;111.35;26.55;;;;;;;-0.41;100.00;100910.25;5060959;28;20063;-72
2022/12/10 09:41:14;;;;;;;121.55;26.92;;;;;;;-0.32;100.00;100913.41;5057629;28;20024;-72
2022/12/10 09:43:52;;;;;;;117.15;27.45;;;;;;;-0.44;100.00;100903.22;5051497;28;20059;-72
2022/12/10 09:46:31;;;;;;;99.65;25.73;;;;;;;-0.46;100.00;100903.91;5052714;28;20051;-72
2022/12/10 09:49:21;;;;;;;114.97;30.17;;;;;;;-0.37;100.00;100909.66;5060056;28;20028;-73
2022/12/10 09:51:47;;;;;;;119.80;29.95;;;;;;;-0.33;100.00;100918.50;5047419;28;20357;-72
2022/12/10 09:54:27;;;;;;;120.35;28.55;;;;;;;-0.49;100.00;100917.53;5052416;28;20027;-73
2022/12/10 09:56:55;;;;;;;109.50;28.98;;;;;;;-0.42;100.00;100923.97;5042353;28;22093;-73
2022/12/10 09:59:33;;;;;;;111.55;26.00;;;;;;;-0.43;100.00;100924.81;5046492;28;20112;-74
2022/12/10 10:02:20;;;;;;;110.65;26.70;;;;;;;-0.37;100.00;100920.91;5041547;28;20021;-72
2022/12/10 10:04:47;;;;;;;105.80;29.17;;;;;;;-0.40;100.00;100920.69;5051775;28;20033;-74
2022/12/10 10:07:28;;;;;;;117.22;26.67;;;;;;;-0.39;100.00;100917.31;5048006;28;20029;-73
2022/12/10 10:09:58;;;;;;;108.93;28.83;;;;;;;-0.42;100.00;100935.22;5049976;28;20036;-72
2022/12/10 10:12:23;;;;;;;121.28;28.80;;;;;;;-0.36;100.00;100917.50;5046512;28;20425;-73
2022/12/10 10:14:48;;;;;;;125.13;28.67;;;;;;;-0.38;100.00;100911.34;5049130;28;20555;-73
2022/12/10 10:17:21;;;;;;;112.05;26.23;;;;;;;-0.40;100.00;100918.09;5035914;28;20509;-73
2022/12/10 10:19:46;;;;;;;116.85;27.55;;;;;;;-0.43;100.00;100932.56;5040463;28;20029;-73
2022/12/10 10:22:12;;;;;;;108.70;28.02;;;;;;;-0.37;100.00;100936.41;5040089;28;20036;-72
2022/12/10 10:24:42;;;;;;;107.47;28.13;;;;;;;-0.32;100.00;100928.06;5048310;28;20353;-75
2022/12/10 10:27:17;;;;;;;111.18;26.33;;;;;;;-0.39;100.00;100932.84;5044846;28;20029;-75
2022/12/10 10:29:49;;;;;;;108.80;27.52;;;;;;;-0.29;100.00;100936.00;5046899;28;20456;-75
2022/12/10 10:32:18;;;;;;;92.40;25.38;;;;;;;-0.36;100.00;100933.00;5059515;28;20052;-71
2022/12/10 10:34:45;;;;;;;98.53;26.35;;;;;;;-0.25;100.00;100930.22;5056174;28;20472;-75
2022/12/10 10:37:29;;;;;;;99.30;25.73;;;;;;;-0.28;100.00;100935.19;5069634;28;20023;-73
2022/12/10 10:39:55;;;;;;;93.20;26.30;;;;;;;-0.37;100.00;100939.00;5065356;28;20031;-73
2022/12/10 10:42:41;;;;;;;88.05;25.27;;;;;;;-0.28;100.00;100935.19;5051154;28;20101;-73
2022/12/10 10:45:33;;;;;;;105.50;26.77;;;;;;;-0.27;100.00;100934.38;5058750;28;20105;-71
2022/12/10 10:48:06;;;;;;;100.32;26.88;;;;;;;-0.26;100.00;100939.66;5062783;28;20464;-74
2022/12/10 10:50:38;;;;;;;95.10;26.33;;;;;;;-0.31;100.00;100932.41;5061501;28;20036;-73
2022/12/10 10:53:19;;;;;;;91.93;27.00;;;;;;;-0.27;100.00;100942.13;5049706;28;20395;-71
2022/12/10 10:55:45;;;;;;;110.85;30.42;;;;;;;-0.27;100.00;100934.38;5062594;28;20024;-72
2022/12/10 10:58:18;;;;;;;115.82;31.77;;;;;;;-0.19;100.00;100947.00;5044833;28;20061;-73
2022/12/10 11:00:57;;;;;;;107.17;29.63;;;;;;;-0.11;100.00;100949.16;5037772;28;20029;-71
2022/12/10 11:03:23;;;;;;;109.50;29.38;;;;;;;-0.18;100.00;100945.28;5058930;28;20292;-72
2022/12/10 11:05:49;;;;;;;132.80;32.90;;;;;;;-0.13;100.00;100943.00;5068710;28;20052;-72
2022/12/10 11:08:20;;;;;;;102.35;28.85;;;;;;;-0.07;100.00;100945.94;5063968;28;20059;-72
2022/12/10 11:11:02;;;;;;;105.70;29.95;;;;;;;-0.13;100.00;100946.47;5049554;28;20071;-73